createdAt,value
2019-04-03T00:01:17.543Z,11.95
2019-04-03T00:03:48.810Z,11.48
2019-04-03T00:06:20.383Z,12.50
2019-04-03T00:08:51.907Z,13.13
2019-04-03T00:11:23.381Z,12.63
2019-04-03T00:13:54.768Z,10.55
2019-04-03T00:16:25.776Z,14.43
2019-04-03T00:18:56.948Z,12.13
2019-04-03T00:21:28.683Z,16.30
2019-04-03T00:23:59.876Z,14.65
2019-04-03T00:26:31.170Z,15.20
2019-04-03T00:29:02.258Z,15.63
2019-04-03T00:31:33.461Z,16.37
2019-04-03T00:34:05.979Z,14.35
2019-04-03T00:36:37.520Z,14.43
2019-04-03T00:39:09.124Z,13.78
2019-04-03T00:41:40.483Z,14.15
2019-04-03T00:44:11.632Z,13.78
2019-04-03T00:46:43.129Z,13.50
2019-04-03T00:49:14.651Z,12.93
2019-04-03T00:51:46.097Z,12.13
2019-04-03T00:54:17.209Z,17.67
2019-04-03T00:56:48.297Z,16.48
2019-04-03T00:59:19.411Z,13.18
2019-04-03T01:01:50.615Z,13.13
2019-04-03T01:04:22.073Z,12.53
2019-04-03T01:06:53.583Z,12.30
2019-04-03T01:09:25.496Z,13.95
2019-04-03T01:11:56.650Z,15.03
2019-04-03T01:14:27.880Z,15.38
2019-04-03T01:16:59.320Z,19.25
2019-04-03T01:19:30.751Z,21.35
2019-04-03T01:22:01.907Z,19.25
2019-04-03T01:24:33.074Z,18.98
2019-04-03T01:27:04.470Z,16.67
2019-04-03T01:29:35.845Z,15.03
2019-04-03T01:32:07.092Z,15.85
2019-04-03T01:34:38.438Z,16.65
2019-04-03T01:37:09.422Z,16.10
2019-04-03T01:39:40.624Z,15.08
2019-04-03T01:42:11.955Z,13.95
2019-04-03T01:44:43.129Z,18.10
2019-04-03T01:47:14.253Z,14.63
2019-04-03T01:49:45.808Z,15.53
2019-04-03T01:52:16.946Z,14.15
2019-04-03T01:54:48.075Z,16.70
2019-04-03T01:57:19.296Z,17.82
2019-04-03T01:59:50.764Z,17.95
2019-04-03T02:02:21.848Z,14.78
2019-04-03T02:04:53.141Z,16.52
2019-04-03T02:07:24.297Z,18.50
2019-04-03T02:09:55.553Z,16.93
2019-04-03T02:12:26.677Z,15.63
2019-04-03T02:14:58.079Z,16.80
2019-04-03T02:17:29.188Z,14.73
2019-04-03T02:20:00.464Z,13.00
2019-04-03T02:22:31.538Z,15.88
2019-04-03T02:25:03.178Z,12.53
2019-04-03T02:27:34.313Z,12.35
2019-04-03T02:30:06.874Z,12.45
2019-04-03T02:32:38.165Z,11.90
2019-04-03T02:35:09.512Z,15.08
2019-04-03T02:37:40.948Z,13.08
2019-04-03T02:40:13.217Z,16.45
2019-04-03T02:42:44.557Z,13.25
2019-04-03T02:45:16.521Z,13.78
2019-04-03T02:47:47.807Z,13.08
2019-04-03T02:50:26.425Z,12.50
2019-04-03T02:52:59.079Z,11.95
2019-04-03T02:55:31.048Z,11.30
2019-04-03T02:58:02.799Z,14.63
2019-04-03T03:00:34.104Z,12.60
2019-04-03T03:03:05.655Z,11.90
2019-04-03T03:05:37.006Z,13.00
2019-04-03T03:08:09.157Z,11.20
2019-04-03T03:10:41.450Z,11.00
2019-04-03T03:13:12.809Z,15.30
2019-04-03T03:15:45.092Z,12.45
2019-04-03T03:18:16.667Z,12.20
2019-04-03T03:20:48.930Z,12.93
2019-04-03T03:23:23.277Z,12.55
2019-04-03T03:25:53.738Z,11.50
2019-04-03T03:28:25.441Z,12.75
2019-04-03T03:31:03.264Z,11.53
2019-04-03T03:33:37.440Z,13.03
2019-04-03T03:36:07.350Z,13.62
2019-04-03T03:38:40.374Z,11.75
2019-04-03T03:41:12.104Z,16.15
2019-04-03T03:43:45.372Z,12.73
2019-04-03T03:46:16.986Z,13.83
2019-04-03T03:48:49.099Z,12.43
2019-04-03T03:51:22.202Z,11.78
2019-04-03T03:53:54.080Z,12.40
2019-04-03T03:56:25.376Z,11.57
2019-04-03T03:58:57.118Z,14.38
2019-04-03T04:01:31.459Z,13.55
2019-04-03T04:04:02.721Z,13.18
2019-04-03T04:06:36.458Z,12.98
2019-04-03T04:09:09.307Z,13.83
2019-04-03T04:11:41.940Z,13.50
2019-04-03T04:14:13.881Z,14.15
2019-04-03T04:16:46.544Z,14.23
2019-04-03T04:19:18.218Z,13.75
2019-04-03T04:21:49.833Z,11.38
2019-04-03T04:24:21.250Z,13.40
2019-04-03T04:26:52.962Z,13.32
2019-04-03T04:29:26.116Z,12.93
2019-04-03T04:31:57.442Z,11.68
2019-04-03T04:34:29.641Z,10.85
2019-04-03T04:37:02.855Z,12.37
2019-04-03T04:39:34.728Z,14.33
2019-04-03T04:42:05.980Z,13.05
2019-04-03T04:44:41.161Z,13.58
2019-04-03T04:47:15.331Z,13.10
2019-04-03T04:49:46.779Z,13.68
2019-04-03T04:52:18.087Z,13.45
2019-04-03T04:54:49.945Z,14.90
2019-04-03T04:57:21.341Z,17.23
2019-04-03T04:59:52.511Z,14.47
2019-04-03T05:02:24.076Z,16.12
2019-04-03T05:04:56.596Z,14.28
2019-04-03T05:07:30.323Z,17.20
2019-04-03T05:10:01.517Z,19.77
2019-04-03T05:12:33.021Z,15.40
2019-04-03T05:15:04.682Z,18.15
2019-04-03T05:17:35.988Z,16.57
2019-04-03T05:20:08.127Z,17.00
2019-04-03T05:22:39.970Z,18.27
2019-04-03T05:25:11.386Z,17.37
2019-04-03T05:27:42.574Z,16.60
2019-04-03T05:30:22.626Z,17.75
2019-04-03T05:32:53.830Z,17.57
2019-04-03T05:35:24.827Z,19.02
2019-04-03T05:37:56.132Z,18.73
2019-04-03T05:40:27.331Z,17.37
2019-04-03T05:43:00.160Z,20.20
2019-04-03T05:45:34.687Z,23.95
2019-04-03T05:48:05.299Z,20.77
2019-04-03T05:50:37.320Z,21.37
2019-04-03T05:53:08.576Z,19.98
2019-04-03T05:55:40.991Z,22.60
2019-04-03T05:58:15.575Z,18.07
2019-04-03T06:00:45.839Z,20.88
2019-04-03T06:03:17.063Z,26.70
2019-04-03T06:05:48.657Z,20.40
2019-04-03T06:08:20.296Z,21.17
2019-04-03T06:10:52.978Z,21.35
2019-04-03T06:13:24.201Z,22.75
2019-04-03T06:15:55.402Z,20.15
2019-04-03T06:18:26.971Z,21.00
2019-04-03T06:20:58.628Z,19.40
2019-04-03T06:23:29.674Z,19.07
2019-04-03T06:26:02.177Z,20.23
2019-04-03T06:28:33.736Z,18.67
2019-04-03T06:31:07.866Z,17.35
2019-04-03T06:33:37.834Z,21.37
2019-04-03T06:36:10.500Z,17.27
2019-04-03T06:38:42.029Z,17.85
2019-04-03T06:41:13.082Z,18.73
2019-04-03T06:43:44.672Z,19.35
2019-04-03T06:46:15.901Z,20.12
2019-04-03T06:48:47.127Z,18.60
2019-04-03T06:51:18.319Z,22.30
2019-04-03T06:53:49.870Z,21.65
2019-04-03T06:56:21.056Z,16.17
2019-04-03T06:58:52.186Z,19.60
2019-04-03T07:01:23.907Z,19.67
2019-04-03T07:03:55.125Z,19.02
2019-04-03T07:06:26.564Z,32.03
2019-04-03T07:24:43.918Z,17.37
2019-04-03T07:27:15.583Z,17.55
2019-04-03T07:29:49.001Z,21.52
2019-04-03T07:32:19.996Z,20.08
2019-04-03T07:34:51.259Z,19.40
2019-04-03T07:37:22.814Z,17.87
2019-04-03T07:39:58.114Z,16.90
2019-04-03T07:42:28.417Z,18.37
2019-04-03T07:45:01.415Z,22.75
2019-04-03T07:47:34.420Z,16.25
2019-04-03T07:50:06.965Z,15.00
2019-04-03T07:52:38.263Z,19.45
2019-04-03T07:55:10.119Z,18.23
2019-04-03T07:57:41.614Z,17.87
2019-04-03T08:00:13.398Z,18.77
2019-04-03T08:02:47.811Z,15.75
2019-04-03T08:05:17.946Z,18.23
2019-04-03T08:07:49.620Z,16.57
2019-04-03T08:10:21.158Z,15.55
2019-04-03T08:12:52.378Z,18.42
2019-04-03T08:15:23.778Z,15.53
2019-04-03T08:17:57.099Z,15.20
2019-04-03T08:20:30.644Z,15.25
2019-04-03T08:23:04.986Z,18.37
2019-04-03T08:25:35.157Z,18.35
2019-04-03T08:28:06.427Z,15.85
2019-04-03T08:30:39.674Z,15.15
2019-04-03T08:33:17.392Z,14.70
2019-04-03T08:35:43.635Z,19.40
2019-04-03T08:38:14.927Z,14.58
2019-04-03T08:40:46.208Z,16.60
2019-04-03T08:43:17.492Z,15.88
2019-04-03T08:45:48.836Z,17.07
2019-04-03T08:48:20.151Z,16.20
2019-04-03T08:50:51.266Z,16.70
2019-04-03T08:53:22.336Z,15.70
2019-04-03T08:55:56.571Z,13.65
2019-04-03T08:58:27.760Z,16.45
2019-04-03T09:00:59.365Z,15.03
2019-04-03T09:03:31.107Z,16.90
2019-04-03T09:06:02.420Z,15.68
2019-04-03T09:08:34.343Z,14.45
2019-04-03T09:11:05.589Z,15.63
2019-04-03T09:13:37.333Z,15.25
2019-04-03T09:16:10.608Z,16.93
2019-04-03T09:18:42.148Z,14.40
2019-04-03T09:21:15.026Z,17.65
2019-04-03T09:23:47.837Z,18.02
2019-04-03T09:26:19.859Z,18.42
2019-04-03T09:28:51.511Z,16.48
2019-04-03T09:31:23.100Z,18.92
2019-04-03T09:33:54.794Z,15.83
2019-04-03T09:36:32.707Z,19.00
2019-04-03T09:39:08.044Z,20.25
2019-04-03T09:41:42.287Z,16.85
2019-04-03T09:44:13.719Z,18.42
2019-04-03T09:46:45.639Z,19.95
2019-04-03T09:49:17.599Z,17.25
2019-04-03T09:51:49.973Z,18.20
2019-04-03T09:54:22.867Z,18.70
2019-04-03T09:57:01.139Z,20.12
2019-04-03T09:59:27.095Z,16.25
2019-04-03T10:01:58.412Z,13.98
2019-04-03T10:04:29.897Z,16.23
2019-04-03T10:07:02.338Z,17.50
2019-04-03T10:09:37.923Z,14.05
2019-04-03T10:12:08.266Z,13.88
2019-04-03T10:14:39.449Z,12.75
2019-04-03T10:17:11.621Z,13.70
2019-04-03T10:19:45.898Z,12.25
2019-04-03T10:22:16.628Z,13.93
2019-04-03T10:24:47.834Z,12.65
2019-04-03T10:27:19.129Z,12.50
2019-04-03T10:29:51.116Z,12.75
2019-04-03T10:32:22.497Z,12.98
2019-04-03T10:34:54.054Z,14.50
2019-04-03T10:37:25.520Z,12.33
2019-04-03T10:39:57.178Z,13.22
2019-04-03T10:42:31.255Z,13.03
2019-04-03T10:45:03.146Z,9.35
2019-04-03T10:47:41.137Z,17.10
2019-04-03T10:50:07.745Z,12.95
2019-04-03T10:52:44.657Z,11.40
2019-04-03T10:55:18.264Z,11.93
2019-04-03T10:57:53.671Z,11.22
2019-04-03T11:00:28.647Z,11.08
2019-04-03T11:02:58.783Z,10.65
2019-04-03T11:05:30.804Z,11.33
2019-04-03T11:08:02.527Z,10.40
2019-04-03T11:10:34.404Z,10.90
2019-04-03T11:13:06.708Z,10.03
2019-04-03T11:15:38.247Z,9.90
2019-04-03T11:18:09.799Z,10.30
2019-04-03T11:20:41.463Z,9.45
2019-04-03T11:23:13.164Z,11.85
2019-04-03T11:25:46.356Z,10.75
2019-04-03T11:28:17.294Z,11.38
2019-04-03T11:30:52.115Z,10.25
2019-04-03T11:33:22.420Z,10.78
2019-04-03T11:35:54.129Z,11.10
2019-04-03T11:38:28.551Z,10.55
2019-04-03T11:41:11.380Z,11.08
2019-04-03T11:43:32.584Z,11.18
2019-04-03T11:46:19.652Z,11.65
2019-04-03T11:49:05.014Z,12.43
2019-04-03T11:52:05.056Z,13.15
2019-04-03T11:55:01.694Z,10.68
2019-04-03T11:57:50.535Z,10.88
2019-04-03T12:00:46.680Z,10.88
2019-04-03T12:03:27.759Z,11.30
2019-04-03T12:06:41.603Z,11.80
2019-04-03T12:09:46.639Z,12.33
2019-04-03T12:12:36.048Z,11.45
2019-04-03T12:15:30.499Z,11.45
2019-04-03T12:18:18.610Z,12.20
2019-04-03T12:21:18.326Z,11.10
2019-04-03T12:24:04.963Z,11.33
2019-04-03T12:27:05.693Z,11.50
2019-04-03T12:30:16.147Z,11.95
2019-04-03T12:33:11.780Z,11.43
2019-04-03T12:35:55.823Z,11.55
2019-04-03T12:39:13.357Z,11.78
2019-04-03T12:42:17.302Z,12.55
2019-04-03T12:45:34.711Z,13.55
2019-04-03T12:48:34.388Z,11.93
2019-04-03T12:51:39.241Z,12.35
2019-04-03T12:54:35.699Z,12.25
2019-04-03T12:58:05.894Z,13.10
2019-04-03T13:00:52.612Z,11.53
2019-04-03T13:03:38.397Z,12.43
2019-04-03T13:06:25.108Z,11.78
2019-04-03T13:09:08.843Z,12.25
2019-04-03T13:11:52.590Z,11.65
2019-04-03T13:14:39.700Z,16.57
2019-04-03T13:17:35.970Z,12.33
2019-04-03T13:20:27.250Z,11.88
2019-04-03T13:23:15.601Z,12.37
2019-04-03T13:25:57.431Z,13.43
2019-04-03T13:28:49.332Z,11.38
2019-04-03T13:31:19.785Z,11.28
2019-04-03T13:33:51.183Z,11.28
2019-04-03T13:36:24.311Z,12.82
2019-04-03T13:38:55.578Z,12.88
2019-04-03T13:41:27.864Z,12.82
2019-04-03T13:43:59.096Z,13.38
2019-04-03T13:46:30.424Z,12.50
2019-04-03T13:49:01.886Z,13.18
2019-04-03T13:51:33.621Z,12.82
2019-04-03T13:54:07.201Z,13.68
2019-04-03T13:56:38.064Z,12.88
2019-04-03T13:59:09.806Z,13.30
2019-04-03T14:01:41.753Z,15.72
2019-04-03T14:04:13.809Z,12.03
2019-04-03T14:06:45.189Z,13.35
2019-04-03T14:09:17.654Z,16.50
2019-04-03T14:11:49.343Z,11.28
2019-04-03T14:14:20.626Z,14.00
2019-04-03T14:16:52.588Z,12.47
2019-04-03T14:19:25.178Z,12.98
2019-04-03T14:21:59.994Z,13.30
2019-04-03T14:24:38.098Z,13.20
2019-04-03T14:27:19.356Z,13.80
2019-04-03T14:29:41.732Z,15.10
2019-04-03T14:32:14.582Z,15.08
2019-04-03T14:34:46.094Z,12.05
2019-04-03T14:37:17.660Z,13.22
2019-04-03T14:39:48.921Z,11.50
2019-04-03T14:42:20.766Z,12.85
2019-04-03T14:44:52.304Z,12.40
2019-04-03T14:47:24.315Z,12.68
2019-04-03T14:49:57.066Z,11.57
2019-04-03T14:52:28.624Z,11.68
2019-04-03T14:55:14.808Z,14.10
2019-04-03T14:57:33.441Z,11.83
2019-04-03T15:00:22.956Z,14.45
2019-04-03T15:02:41.460Z,12.58
2019-04-03T15:05:13.851Z,11.90
2019-04-03T15:07:45.560Z,17.55
2019-04-03T15:10:17.622Z,13.03
2019-04-03T15:12:48.988Z,12.65
2019-04-03T15:15:20.681Z,12.63
2019-04-03T15:17:52.044Z,12.33
2019-04-03T15:20:23.243Z,13.05
2019-04-03T15:22:55.048Z,11.55
2019-04-03T15:25:26.277Z,12.98
2019-04-03T15:27:59.293Z,12.33
2019-04-03T15:30:31.349Z,15.95
2019-04-03T15:33:02.827Z,12.18
2019-04-03T15:35:34.431Z,12.90
2019-04-03T15:38:06.325Z,15.20
2019-04-03T15:40:37.563Z,12.58
2019-04-03T15:43:11.954Z,14.07
2019-04-03T15:45:42.120Z,14.90
2019-04-03T15:48:13.879Z,13.28
2019-04-03T15:50:45.412Z,12.33
2019-04-03T15:53:17.157Z,13.25
2019-04-03T15:55:48.260Z,14.10
2019-04-03T15:58:19.624Z,21.12
2019-04-03T16:00:50.805Z,15.40
2019-04-03T16:03:22.246Z,15.70
2019-04-03T16:05:53.500Z,16.35
2019-04-03T16:08:24.794Z,15.70
2019-04-03T16:10:56.661Z,17.20
2019-04-03T16:13:28.928Z,17.70
2019-04-03T16:16:02.086Z,17.00
2019-04-03T16:18:33.935Z,18.42
2019-04-03T16:21:05.274Z,16.25
2019-04-03T16:23:38.114Z,16.60
2019-04-03T16:26:10.091Z,17.27
2019-04-03T16:28:42.972Z,18.05
2019-04-03T16:31:14.933Z,19.50
2019-04-03T16:33:46.023Z,16.00
2019-04-03T16:36:17.816Z,16.27
2019-04-03T16:38:49.505Z,15.55
2019-04-03T16:41:21.455Z,15.25
2019-04-03T16:43:52.897Z,17.05
2019-04-03T16:46:25.644Z,15.00
2019-04-03T16:48:57.065Z,13.95
2019-04-03T16:51:30.804Z,19.65
2019-04-03T16:54:01.997Z,13.98
2019-04-03T16:56:33.981Z,13.65
2019-04-03T16:59:07.287Z,17.30
2019-04-03T17:01:38.999Z,14.70
2019-04-03T17:04:10.605Z,13.40
2019-04-03T17:06:42.104Z,14.65
2019-04-03T17:09:13.670Z,13.98
2019-04-03T17:11:48.641Z,15.88
2019-04-03T17:14:18.473Z,13.62
2019-04-03T17:16:50.108Z,13.55
2019-04-03T17:19:21.865Z,14.10
2019-04-03T17:21:53.682Z,12.90
2019-04-03T17:24:25.228Z,13.93
2019-04-03T17:26:59.418Z,11.65
2019-04-03T17:29:30.390Z,11.73
2019-04-03T17:32:03.406Z,13.70
2019-04-03T17:34:37.174Z,13.18
2019-04-03T17:37:08.843Z,11.57
2019-04-03T17:39:40.147Z,12.40
2019-04-03T17:42:12.264Z,10.40
2019-04-03T17:44:44.825Z,10.98
2019-04-03T17:47:19.270Z,11.60
2019-04-03T17:49:50.318Z,11.18
2019-04-03T17:52:24.392Z,12.58
2019-04-03T17:54:56.033Z,11.73
2019-04-03T17:57:27.375Z,12.73
2019-04-03T17:59:59.236Z,13.35
2019-04-03T18:02:30.458Z,13.25
2019-04-03T18:05:01.648Z,14.70
2019-04-03T18:07:33.024Z,11.80
2019-04-03T18:10:07.807Z,12.33
2019-04-03T18:12:38.062Z,12.33
2019-04-03T18:15:10.049Z,14.50
2019-04-03T18:17:41.644Z,34.08
2019-04-03T18:20:15.308Z,15.20
2019-04-03T18:22:46.901Z,15.15
2019-04-03T18:25:18.555Z,15.03
2019-04-03T18:27:50.113Z,16.02
2019-04-03T18:30:22.170Z,36.75
2019-04-03T18:32:53.457Z,22.25
2019-04-03T18:35:26.334Z,17.67
2019-04-03T18:37:57.950Z,14.20
2019-04-03T18:40:29.139Z,14.45
2019-04-03T18:43:00.827Z,17.27
2019-04-03T18:45:32.063Z,17.65
2019-04-03T18:48:03.421Z,14.23
2019-04-03T18:50:35.225Z,16.42
2019-04-03T18:53:09.444Z,15.93
2019-04-03T18:55:39.890Z,15.63
2019-04-03T18:58:11.608Z,16.55
2019-04-03T19:00:42.947Z,13.68
2019-04-03T19:03:14.276Z,15.15
2019-04-03T19:05:45.495Z,13.40
2019-04-03T19:08:18.129Z,15.88
2019-04-03T19:11:01.360Z,13.35
2019-04-03T19:13:22.986Z,13.88
2019-04-03T19:15:54.929Z,21.57
2019-04-03T19:18:26.129Z,14.55
2019-04-03T19:20:57.306Z,13.90
2019-04-03T19:23:29.019Z,12.88
2019-04-03T19:26:00.484Z,12.88
2019-04-03T19:28:34.295Z,13.15
2019-04-03T19:31:08.445Z,14.23
2019-04-03T19:33:40.236Z,16.17
2019-04-03T19:36:11.431Z,13.55
2019-04-03T19:38:43.042Z,14.50
2019-04-03T19:41:15.071Z,13.48
2019-04-03T19:43:48.152Z,15.25
2019-04-03T19:46:22.495Z,18.95
2019-04-03T19:48:52.615Z,20.02
2019-04-03T19:51:23.874Z,17.55
2019-04-03T19:53:59.479Z,20.25
2019-04-03T19:56:28.315Z,14.85
2019-04-03T19:59:00.210Z,15.45
2019-04-03T20:01:32.543Z,16.55
2019-04-03T20:04:03.910Z,14.47
2019-04-03T20:06:35.473Z,13.88
2019-04-03T20:09:09.628Z,15.88
2019-04-03T20:11:41.884Z,14.60
2019-04-03T20:14:13.163Z,14.40
2019-04-03T20:16:44.497Z,13.78
2019-04-03T20:19:15.795Z,14.18
2019-04-03T20:21:47.427Z,12.50
2019-04-03T20:24:19.343Z,14.58
2019-04-03T20:26:50.547Z,14.05
2019-04-03T20:29:22.345Z,14.53
2019-04-03T20:31:54.681Z,14.68
2019-04-03T20:34:25.927Z,13.13
2019-04-03T20:36:57.574Z,15.30
2019-04-03T20:39:29.568Z,15.65
2019-04-03T20:42:03.332Z,14.80
2019-04-03T20:44:34.857Z,13.43
2019-04-03T20:47:06.121Z,14.65
2019-04-03T20:49:37.436Z,14.75
2019-04-03T20:52:10.684Z,14.85
2019-04-03T20:54:41.873Z,14.00
2019-04-03T20:57:13.651Z,16.02
2019-04-03T20:59:57.677Z,14.45
2019-04-03T21:02:17.994Z,12.70
2019-04-03T21:04:49.349Z,13.00
2019-04-03T21:07:23.775Z,13.65
2019-04-03T21:09:53.624Z,11.80
2019-04-03T21:12:24.668Z,14.60
2019-04-03T21:15:07.639Z,12.82
2019-04-03T21:17:28.811Z,11.80
2019-04-03T21:20:00.247Z,11.93
2019-04-03T21:22:31.639Z,11.48
2019-04-03T21:25:04.984Z,11.85
2019-04-03T21:27:39.785Z,11.63
2019-04-03T21:30:10.732Z,11.28
2019-04-03T21:32:41.997Z,14.70
2019-04-03T21:35:13.767Z,12.47
2019-04-03T21:37:45.282Z,11.68
2019-04-03T21:40:16.594Z,11.28
2019-04-03T21:42:48.020Z,14.25
2019-04-03T21:45:19.309Z,13.60
2019-04-03T21:47:50.584Z,13.68
2019-04-03T21:50:21.903Z,13.00
2019-04-03T21:52:53.751Z,12.05
2019-04-03T21:55:26.290Z,14.47
2019-04-03T21:57:57.483Z,14.07
2019-04-03T22:01:22.847Z,14.78
2019-04-03T22:03:54.331Z,14.63
2019-04-03T22:06:27.666Z,15.40
2019-04-03T22:09:00.520Z,12.28
2019-04-03T22:11:35.585Z,12.85
2019-04-03T22:14:06.970Z,13.03
2019-04-03T22:16:38.366Z,12.63
2019-04-03T22:19:09.491Z,12.70
2019-04-03T22:21:41.004Z,12.28
2019-04-03T22:24:12.291Z,11.83
2019-04-03T22:26:43.503Z,16.15
2019-04-03T22:29:14.808Z,12.50
2019-04-03T22:31:45.958Z,17.62
2019-04-03T22:34:17.140Z,13.65
2019-04-03T22:36:48.752Z,14.95
2019-04-03T22:39:20.443Z,12.53
2019-04-03T22:41:51.991Z,12.75
2019-04-03T22:44:23.179Z,13.43
2019-04-03T22:46:54.870Z,13.95
2019-04-03T22:49:26.424Z,13.15
2019-04-03T22:51:58.991Z,14.98
2019-04-03T22:54:30.376Z,12.35
2019-04-03T22:57:02.253Z,13.50
2019-04-03T22:59:33.769Z,12.35
2019-04-03T23:02:05.054Z,12.85
2019-04-03T23:04:36.175Z,11.60
2019-04-03T23:07:07.384Z,14.98
2019-04-03T23:09:38.503Z,12.82
2019-04-03T23:12:09.686Z,11.45
2019-04-03T23:14:41.145Z,14.80
2019-04-03T23:17:14.022Z,13.00
2019-04-03T23:19:45.192Z,12.35
2019-04-03T23:22:17.228Z,11.93
2019-04-03T23:24:48.756Z,12.18
2019-04-03T23:27:21.469Z,12.60
2019-04-03T23:29:52.675Z,12.47
2019-04-03T23:32:24.042Z,11.53
2019-04-03T23:34:55.342Z,11.15
2019-04-03T23:37:26.490Z,11.97
2019-04-03T23:39:59.181Z,12.82
2019-04-03T23:42:31.403Z,12.03
2019-04-03T23:45:02.814Z,12.80
2019-04-03T23:47:34.492Z,11.28
2019-04-03T23:50:06.291Z,11.38
2019-04-03T23:52:37.943Z,13.80
2019-04-03T23:55:09.299Z,13.28
2019-04-03T23:57:41.359Z,12.13
